Time;durP1;ratioP1;P1;durP2;ratioP2;P2;SDS_P1;SDS_P2;PMS_P1;PMS_P2;Temp;Humidity;BMP_temperature;BMP_pressure;BME280_temperature;BME280_humidity;BME280_pressure;Samples;Min_cycle;Max_cycle;Signal;HPM_P1;HPM_P2
2022/09/10 00:01:29;;;;;;;5.28;2.88;;;;;;;25.34;58.01;100696.44;5075681;28;20051;-74
2022/09/10 00:03:56;;;;;;;4.47;3.15;;;;;;;25.36;57.89;100694.38;5074406;28;20056;-75
2022/09/10 00:06:26;;;;;;;4.60;3.28;;;;;;;25.37;57.90;100693.38;5075532;28;20399;-74
2022/09/10 00:08:56;;;;;;;4.30;3.00;;;;;;;25.36;57.95;100687.13;5076101;28;20041;-74
2022/09/10 00:11:26;;;;;;;4.28;2.75;;;;;;;25.37;58.00;100690.69;5075936;28;20055;-74
2022/09/10 00:13:56;;;;;;;3.92;2.65;;;;;;;25.39;58.21;100691.31;5076018;28;20522;-75
2022/09/10 00:16:24;;;;;;;4.32;2.97;;;;;;;25.39;58.14;100694.88;5095711;28;20055;-74
2022/09/10 00:18:52;;;;;;;5.05;2.72;;;;;;;25.40;58.39;100693.00;5086254;28;20032;-75
2022/09/10 00:21:20;;;;;;;3.08;2.60;;;;;;;25.42;58.75;100703.69;5074786;28;20060;-74
2022/09/10 00:23:48;;;;;;;4.28;3.00;;;;;;;25.42;58.78;100706.41;5076123;28;20048;-75
2022/09/10 00:26:17;;;;;;;3.35;2.58;;;;;;;25.42;58.40;100715.38;5075129;28;20040;-75
2022/09/10 00:28:45;;;;;;;6.00;2.70;;;;;;;25.43;58.57;100713.50;5075126;28;20051;-75
2022/09/10 00:31:12;;;;;;;4.22;2.85;;;;;;;25.44;58.53;100726.88;5074496;28;20044;-75
2022/09/10 00:33:40;;;;;;;5.22;3.25;;;;;;;25.44;58.67;100732.28;5073228;28;20518;-75
2022/09/10 00:36:16;;;;;;;3.60;2.72;;;;;;;25.46;58.85;100734.84;5075223;28;20040;-75
2022/09/10 00:38:44;;;;;;;4.80;3.15;;;;;;;25.46;58.70;100732.13;5074297;28;20040;-75
2022/09/10 00:41:13;;;;;;;4.40;2.78;;;;;;;25.46;58.90;100730.28;5073482;28;20057;-75
2022/09/10 00:43:47;;;;;;;4.60;2.67;;;;;;;25.47;59.12;100742.78;5074214;28;20048;-75
2022/09/10 00:46:25;;;;;;;3.53;2.95;;;;;;;25.47;59.10;100733.81;5073446;28;20055;-75
2022/09/10 00:48:58;;;;;;;3.97;2.72;;;;;;;25.48;59.18;100730.97;5073778;28;20045;-75
2022/09/10 00:51:29;;;;;;;6.07;2.80;;;;;;;25.48;59.28;100730.97;5074635;28;20400;-75
2022/09/10 00:53:59;;;;;;;4.55;3.55;;;;;;;25.49;59.53;100726.38;5074223;28;20059;-75
2022/09/10 00:56:27;;;;;;;3.72;2.50;;;;;;;25.49;59.35;100731.78;5074545;28;20047;-75
2022/09/10 00:58:55;;;;;;;4.55;3.13;;;;;;;25.49;59.70;100735.34;5074324;28;20384;-75
2022/09/10 01:01:22;;;;;;;3.80;3.17;;;;;;;25.50;59.66;100733.47;5074902;28;20041;-75
2022/09/10 01:03:51;;;;;;;5.00;2.92;;;;;;;25.50;59.48;100728.91;5073520;28;20052;-74
2022/09/10 01:06:19;;;;;;;5.22;2.80;;;;;;;25.49;59.59;100727.22;5074595;28;20052;-75
2022/09/10 01:08:46;;;;;;;4.28;3.13;;;;;;;25.50;59.73;100734.31;5075039;28;20488;-75
2022/09/10 01:11:29;;;;;;;4.47;2.75;;;;;;;25.51;59.48;100743.28;5074149;28;20112;-75
2022/09/10 01:14:12;;;;;;;5.38;2.92;;;;;;;25.52;59.63;100737.72;5074531;28;20048;-75
2022/09/10 01:17:11;;;;;;;4.22;2.50;;;;;;;25.51;59.50;100736.00;5072870;28;20052;-75
2022/09/10 01:19:54;;;;;;;5.90;3.35;;;;;;;25.51;60.02;100740.59;5072661;28;20037;-75
2022/09/10 01:22:49;;;;;;;3.63;2.75;;;;;;;25.52;59.54;100743.13;5092987;28;20055;-74
2022/09/10 01:25:32;;;;;;;4.47;2.88;;;;;;;25.52;59.62;100747.69;5076920;28;20048;-75
2022/09/10 01:28:07;;;;;;;4.85;2.85;;;;;;;25.52;59.63;100751.28;5093183;28;20052;-75
2022/09/10 01:30:42;;;;;;;6.45;3.65;;;;;;;25.52;59.61;100748.56;5093877;28;20411;-74
2022/09/10 01:33:41;;;;;;;4.00;3.20;;;;;;;25.52;59.64;100740.44;5073117;28;20060;-74
2022/09/10 01:36:15;;;;;;;6.00;2.60;;;;;;;25.53;59.64;100743.97;5071712;28;20420;-74
2022/09/10 01:38:43;;;;;;;3.88;3.13;;;;;;;25.52;59.72;100743.13;5072898;28;20052;-75
2022/09/10 01:41:12;;;;;;;3.28;2.53;;;;;;;25.54;59.72;100751.09;5073951;28;20041;-74
2022/09/10 01:43:41;;;;;;;4.75;2.80;;;;;;;25.53;59.74;100752.13;5082147;28;20048;-75
2022/09/10 01:46:25;;;;;;;4.03;2.55;;;;;;;25.54;59.70;100748.38;5072647;28;20057;-74
2022/09/10 01:49:12;;;;;;;6.00;2.75;;;;;;;25.54;59.50;100741.09;5072680;28;20052;-74
2022/09/10 01:52:14;;;;;;;6.75;3.33;;;;;;;25.54;59.82;100751.94;5074082;28;20380;-75
2022/09/10 01:54:58;;;;;;;4.97;2.60;;;;;;;25.54;59.49;100751.09;5089327;28;20056;-75
2022/09/10 01:58:05;;;;;;;4.18;2.97;;;;;;;25.55;59.65;100760.91;5072440;28;20049;-75
2022/09/10 02:00:51;;;;;;;6.00;2.85;;;;;;;25.55;59.58;100764.44;5054408;28;20049;-75
2022/09/10 02:03:22;;;;;;;4.38;2.88;;;;;;;25.55;59.57;100769.88;5071051;28;20059;-75
2022/09/10 02:05:53;;;;;;;5.03;2.72;;;;;;;25.55;59.66;100759.03;5054151;28;20052;-74
2022/09/10 02:08:27;;;;;;;4.18;2.40;;;;;;;25.57;59.56;100772.44;5054587;28;20048;-75
2022/09/10 02:11:00;;;;;;;3.70;2.47;;;;;;;25.56;59.45;100779.72;5053626;28;20059;-74
2022/09/10 02:13:33;;;;;;;4.78;2.75;;;;;;;25.57;59.69;100794.97;5053759;28;20130;-74
2022/09/10 02:16:42;;;;;;;3.53;2.42;;;;;;;25.58;59.58;100801.22;5083935;28;20546;-74
2022/09/10 02:19:13;;;;;;;4.50;2.55;;;;;;;25.58;59.40;100820.19;5074382;28;20048;-75
2022/09/10 02:21:40;;;;;;;5.68;2.85;;;;;;;25.58;59.27;100828.34;5074138;28;20044;-74
2022/09/10 02:24:10;;;;;;;3.28;2.22;;;;;;;25.58;59.13;100831.88;5070796;28;20056;-75
2022/09/10 02:26:41;;;;;;;6.60;2.90;;;;;;;25.58;59.24;100829.19;5054074;28;20053;-74
2022/09/10 02:29:11;;;;;;;4.35;2.40;;;;;;;25.59;59.32;100839.00;5054557;28;20056;-74
2022/09/10 02:31:39;;;;;;;3.97;2.35;;;;;;;25.58;58.92;100834.59;5071084;28;20144;-74
2022/09/10 02:34:07;;;;;;;4.78;2.38;;;;;;;25.59;59.15;100838.16;5056354;28;20424;-74
2022/09/10 02:36:34;;;;;;;4.00;2.45;;;;;;;25.61;59.08;100836.13;5072658;28;20053;-74
2022/09/10 02:39:03;;;;;;;4.60;2.58;;;;;;;25.60;59.04;100826.28;5072887;28;20040;-75
2022/09/10 02:41:36;;;;;;;3.75;2.53;;;;;;;25.60;59.05;100838.00;5072637;28;20059;-74
2022/09/10 02:44:03;;;;;;;6.07;2.60;;;;;;;25.60;58.94;100835.28;5073013;28;20115;-75
2022/09/10 02:46:31;;;;;;;3.38;2.80;;;;;;;25.60;58.93;100839.84;5072877;28;20056;-75
2022/09/10 02:48:58;;;;;;;5.95;2.60;;;;;;;25.59;59.03;100821.88;5071952;28;20063;-74
2022/09/10 02:51:28;;;;;;;4.00;2.60;;;;;;;25.60;58.89;100821.72;5071841;28;20056;-75
2022/09/10 02:53:56;;;;;;;4.35;2.47;;;;;;;25.60;58.93;100823.56;5071564;28;20527;-74
2022/09/10 02:56:23;;;;;;;3.15;2.25;;;;;;;25.61;58.96;100820.69;5073426;28;20384;-75
2022/09/10 02:58:51;;;;;;;3.80;2.72;;;;;;;25.60;58.84;100813.59;5072015;28;20044;-75
2022/09/10 03:01:21;;;;;;;3.55;2.40;;;;;;;25.60;58.87;100804.59;5071846;28;20048;-74
2022/09/10 03:03:57;;;;;;;3.92;2.60;;;;;;;25.59;58.99;100797.47;5071766;28;20056;-74
2022/09/10 03:06:26;;;;;;;3.20;2.50;;;;;;;25.61;58.96;100801.72;5071607;28;20060;-74
2022/09/10 03:08:56;;;;;;;4.07;2.83;;;;;;;25.61;59.00;100799.00;5071604;28;20044;-75
2022/09/10 03:11:26;;;;;;;3.58;2.22;;;;;;;25.62;58.97;100805.28;5072105;28;20439;-75
2022/09/10 03:13:54;;;;;;;3.42;2.45;;;;;;;25.62;59.05;100805.28;5071537;28;20072;-75
2022/09/10 03:16:23;;;;;;;4.28;2.58;;;;;;;25.61;59.08;100798.16;5071692;28;20044;-74
2022/09/10 03:18:51;;;;;;;4.32;2.58;;;;;;;25.61;58.70;100799.00;5072511;28;20060;-75
2022/09/10 03:21:21;;;;;;;3.70;2.30;;;;;;;25.61;58.79;100809.84;5071533;28;20566;-74
2022/09/10 03:23:50;;;;;;;4.43;2.70;;;;;;;25.60;58.62;100810.88;5075675;28;20396;-74
2022/09/10 03:26:24;;;;;;;3.53;2.75;;;;;;;25.56;57.97;100806.81;5075635;28;20055;-75
2022/09/10 03:28:52;;;;;;;3.05;2.58;;;;;;;25.51;57.02;100809.19;5075600;28;20407;-75
2022/09/10 03:31:22;;;;;;;5.85;2.83;;;;;;;25.47;57.86;100801.59;5075139;28;20049;-75
2022/09/10 03:33:50;;;;;;;4.30;2.85;;;;;;;25.44;57.41;100804.63;5094405;28;20059;-75
2022/09/10 03:36:19;;;;;;;4.18;2.97;;;;;;;25.42;57.60;100812.09;5095023;28;20075;-75
2022/09/10 03:38:49;;;;;;;3.30;2.50;;;;;;;25.42;57.53;100809.41;5095233;28;20051;-75
2022/09/10 03:41:16;;;;;;;5.07;2.70;;;;;;;25.41;58.09;100803.13;5095759;28;20044;-74
2022/09/10 03:43:44;;;;;;;4.93;3.17;;;;;;;25.39;57.82;100806.00;5095135;28;20430;-74
2022/09/10 03:46:12;;;;;;;3.72;2.85;;;;;;;25.38;57.53;100815.16;5094937;28;20047;-78
2022/09/10 03:48:42;;;;;;;3.92;2.67;;;;;;;25.37;56.77;100821.59;5095286;28;20047;-75
2022/09/10 03:51:10;;;;;;;7.82;2.60;;;;;;;25.34;56.85;100816.50;5096479;28;20070;-75
2022/09/10 03:53:39;;;;;;;4.15;2.55;;;;;;;25.35;57.01;100812.78;5094828;28;20499;-75
2022/09/10 03:56:11;;;;;;;3.30;2.40;;;;;;;25.35;56.80;100822.78;5096260;28;20043;-75
2022/09/10 03:58:39;;;;;;;3.53;1.88;;;;;;;25.33;56.44;100820.25;5095370;28;20040;-75
2022/09/10 04:01:08;;;;;;;3.75;2.35;;;;;;;25.33;56.37;100820.25;5094756;28;20048;-75
2022/09/10 04:03:39;;;;;;;3.33;2.13;;;;;;;25.33;56.29;100822.97;5094818;28;20055;-75
2022/09/10 04:06:12;;;;;;;2.45;1.92;;;;;;;25.34;56.22;100838.19;5095717;28;20054;-75
2022/09/10 04:08:40;;;;;;;3.03;2.42;;;;;;;25.34;56.29;100848.19;5094865;28;20503;-75
2022/09/10 04:11:10;;;;;;;2.72;2.15;;;;;;;25.34;56.28;100842.78;5094729;28;20063;-75
2022/09/10 04:13:38;;;;;;;4.00;2.30;;;;;;;25.34;56.32;100842.78;5094680;28;20059;-75
2022/09/10 04:16:05;;;;;;;3.60;2.13;;;;;;;25.34;56.50;100842.78;5094560;28;20411;-75
2022/09/10 04:18:33;;;;;;;2.85;2.00;;;;;;;25.34;56.39;100838.19;5094359;28;20052;-75
2022/09/10 04:21:02;;;;;;;6.32;2.67;;;;;;;25.34;56.22;100845.47;5094474;28;20411;-75
2022/09/10 04:23:30;;;;;;;3.97;2.10;;;;;;;25.34;56.24;100840.91;5079878;28;20060;-74
2022/09/10 04:25:57;;;;;;;4.82;2.85;;;;;;;25.34;56.33;100837.34;5073795;28;20055;-75
2022/09/10 04:28:24;;;;;;;3.33;2.38;;;;;;;25.35;56.25;100833.63;5074264;28;20055;-75
2022/09/10 04:30:53;;;;;;;4.95;2.63;;;;;;;25.34;56.24;100831.94;5074844;28;20488;-75
2022/09/10 04:33:23;;;;;;;4.65;2.42;;;;;;;25.34;56.44;100834.63;5072958;28;20052;-74
2022/09/10 04:35:52;;;;;;;3.47;2.90;;;;;;;25.32;56.47;100832.13;5073681;28;20067;-76
2022/09/10 04:38:19;;;;;;;4.97;2.83;;;;;;;25.32;56.58;100840.25;5074505;28;20048;-76
2022/09/10 04:40:48;;;;;;;3.10;2.38;;;;;;;25.33;56.71;100835.66;5073544;28;20053;-76
2022/09/10 04:43:16;;;;;;;3.95;2.65;;;;;;;25.31;56.56;100833.09;5073681;28;20052;-76
2022/09/10 04:45:43;;;;;;;4.18;2.95;;;;;;;25.32;56.53;100839.38;5073802;28;20053;-75
2022/09/10 04:48:11;;;;;;;3.83;3.00;;;;;;;25.32;56.56;100839.38;5073670;28;20500;-75
2022/09/10 04:50:40;;;;;;;3.65;2.33;;;;;;;25.31;56.69;100841.25;5073668;28;20052;-75
2022/09/10 04:53:27;;;;;;;3.75;2.65;;;;;;;25.31;56.77;100835.81;5074953;28;20048;-75
2022/09/10 04:55:56;;;;;;;3.78;2.60;;;;;;;25.31;56.93;100835.81;5073411;28;20408;-75
2022/09/10 04:58:24;;;;;;;3.85;3.05;;;;;;;25.30;56.96;100836.00;5073751;28;20404;-75
2022/09/10 05:00:51;;;;;;;5.30;2.70;;;;;;;25.30;56.94;100830.59;5074717;28;20036;-75
2022/09/10 05:03:19;;;;;;;5.47;3.35;;;;;;;25.29;56.85;100834.31;5073690;28;20381;-74
2022/09/10 05:05:47;;;;;;;3.95;2.85;;;;;;;25.29;56.92;100831.59;5073017;28;20048;-75
2022/09/10 05:08:14;;;;;;;5.03;2.88;;;;;;;25.27;56.94;100834.47;5072964;28;20049;-75
2022/09/10 05:10:49;;;;;;;5.63;3.40;;;;;;;25.27;56.89;100836.34;5073787;28;20045;-75
2022/09/10 05:13:16;;;;;;;5.55;3.38;;;;;;;25.28;56.72;100832.59;5072941;28;20103;-75
2022/09/10 05:15:44;;;;;;;3.47;2.70;;;;;;;25.26;56.78;100831.94;5074187;28;20396;-75
2022/09/10 05:18:13;;;;;;;5.20;3.10;;;;;;;25.26;57.01;100832.78;5073557;28;20056;-75
2022/09/10 05:20:43;;;;;;;4.93;2.90;;;;;;;25.26;57.08;100829.22;5073032;28;20040;-75
2022/09/10 05:23:11;;;;;;;3.72;3.30;;;;;;;25.25;56.88;100830.25;5072686;28;20372;-75
2022/09/10 05:25:39;;;;;;;4.65;2.95;;;;;;;25.24;56.93;100834.84;5072393;28;20044;-75
2022/09/10 05:28:06;;;;;;;7.07;4.78;;;;;;;25.22;56.74;100833.28;5072701;28;20048;-75
2022/09/10 05:30:33;;;;;;;5.13;3.60;;;;;;;25.20;56.83;100836.19;5072885;28;20049;-75
2022/09/10 05:33:02;;;;;;;4.32;3.15;;;;;;;25.20;56.81;100843.44;5078643;28;20483;-74
2022/09/10 05:35:32;;;;;;;3.38;2.83;;;;;;;25.19;56.89;100850.72;5093199;28;20078;-75
2022/09/10 05:37:59;;;;;;;3.40;2.97;;;;;;;25.20;56.91;100862.41;5092756;28;20052;-74
2022/09/10 05:40:29;;;;;;;5.68;3.25;;;;;;;25.20;57.13;100844.31;5092749;28;20048;-74
2022/09/10 05:42:57;;;;;;;5.10;3.40;;;;;;;25.20;57.26;100851.56;5093974;28;20052;-74
2022/09/10 05:45:24;;;;;;;5.10;3.63;;;;;;;25.21;57.44;100850.59;5093396;28;20076;-74
2022/09/10 05:47:52;;;;;;;3.60;2.92;;;;;;;25.21;57.19;100845.16;5093177;28;20048;-74
2022/09/10 05:50:23;;;;;;;4.40;3.55;;;;;;;25.21;57.20;100851.41;5092882;28;20518;-74
2022/09/10 05:52:52;;;;;;;4.35;3.53;;;;;;;25.22;57.54;100849.56;5092399;28;20051;-74
2022/09/10 05:55:19;;;;;;;5.05;3.85;;;;;;;25.20;57.25;100849.75;5092857;28;20052;-74
2022/09/10 05:57:48;;;;;;;7.47;5.25;;;;;;;25.12;57.48;100847.88;5093728;28;20047;-76
2022/09/10 06:00:18;;;;;;;4.80;3.95;;;;;;;25.10;57.82;100847.19;5092494;28;20043;-74
2022/09/10 06:02:56;;;;;;;5.88;3.88;;;;;;;25.11;57.82;100854.28;5092944;28;20052;-74
2022/09/10 06:05:31;;;;;;;5.07;3.65;;;;;;;25.13;57.74;100846.84;5093065;28;20056;-75
2022/09/10 06:08:01;;;;;;;6.97;4.15;;;;;;;25.15;57.92;100844.81;5092490;28;20048;-74
2022/09/10 06:10:37;;;;;;;6.68;3.78;;;;;;;25.18;57.70;100843.63;5092270;28;20502;-75
2022/09/10 06:13:05;;;;;;;4.35;3.40;;;;;;;25.19;57.83;100842.59;5092448;28;20059;-74
2022/09/10 06:15:34;;;;;;;5.65;3.70;;;;;;;25.21;57.84;100837.88;5092701;28;20060;-75
2022/09/10 06:18:03;;;;;;;6.45;3.45;;;;;;;25.23;57.82;100845.81;5092265;28;20487;-75
2022/09/10 06:20:31;;;;;;;6.13;3.53;;;;;;;25.24;57.85;100836.66;5092185;28;20066;-75
2022/09/10 06:23:00;;;;;;;5.38;3.17;;;;;;;25.27;57.87;100836.34;5092587;28;20071;-76
2022/09/10 06:25:27;;;;;;;4.80;3.38;;;;;;;25.29;57.85;100840.56;5077852;28;20056;-75
2022/09/10 06:27:56;;;;;;;4.30;3.20;;;;;;;25.31;57.84;100834.97;5089645;28;20048;-75
2022/09/10 06:30:25;;;;;;;4.47;3.17;;;;;;;25.33;57.79;100838.38;5092492;28;20051;-74
2022/09/10 06:32:52;;;;;;;4.93;3.35;;;;;;;25.34;57.65;100832.78;5092071;28;20052;-75
2022/09/10 06:35:20;;;;;;;5.60;3.47;;;;;;;25.36;57.71;100835.28;5092290;28;20059;-75
2022/09/10 06:37:49;;;;;;;4.13;2.67;;;;;;;25.38;57.52;100833.28;5092581;28;20059;-74
2022/09/10 06:40:17;;;;;;;5.10;3.00;;;;;;;25.38;57.71;100836.84;5091734;28;20048;-75
2022/09/10 06:42:44;;;;;;;5.38;2.70;;;;;;;25.40;57.55;100842.94;5086929;28;20052;-75
2022/09/10 06:45:12;;;;;;;4.30;2.83;;;;;;;25.41;57.62;100835.66;5073463;28;20063;-75
2022/09/10 06:47:58;;;;;;;3.28;2.63;;;;;;;25.42;57.50;100834.63;5080023;28;20072;-75
2022/09/10 06:50:54;;;;;;;5.00;3.58;;;;;;;25.44;57.59;100837.16;5073089;28;20045;-74
2022/09/10 06:53:28;;;;;;;5.07;3.45;;;;;;;25.44;57.61;100834.44;5072148;28;20056;-74
2022/09/10 06:55:58;;;;;;;6.10;3.30;;;;;;;25.45;57.45;100836.16;5073010;28;20052;-74
2022/09/10 06:58:29;;;;;;;6.03;2.55;;;;;;;25.45;57.57;100834.28;5075567;28;20049;-75
2022/09/10 07:00:56;;;;;;;3.42;2.70;;;;;;;25.45;57.39;100837.00;5076083;28;20060;-75
2022/09/10 07:03:24;;;;;;;3.80;2.58;;;;;;;25.48;57.58;100835.78;5075516;28;20047;-75
2022/09/10 07:05:54;;;;;;;3.90;3.15;;;;;;;25.48;57.46;100833.97;5076177;28;20061;-75
2022/09/10 07:08:26;;;;;;;;;;;;;;;25.48;57.60;100828.53;5076212;28;20067;-74
2022/09/10 07:11:03;;;;;;;7.75;3.15;;;;;;;25.50;57.43;100826.47;5075794;28;19927;-75
2022/09/10 07:13:31;;;;;;;5.88;3.15;;;;;;;25.51;57.41;100827.31;5076593;28;20048;-74
2022/09/10 07:16:00;;;;;;;4.72;3.28;;;;;;;25.51;57.49;100822.75;5075656;28;20052;-75
2022/09/10 07:18:28;;;;;;;4.75;2.70;;;;;;;25.53;57.52;100825.31;5075733;28;20052;-74
2022/09/10 07:21:07;;;;;;;7.05;3.05;;;;;;;25.53;57.49;100817.16;5075435;28;20485;-74
2022/09/10 07:23:43;;;;;;;3.70;2.78;;;;;;;25.52;57.49;100819.03;5076775;28;20048;-75
2022/09/10 07:26:14;;;;;;;3.75;2.78;;;;;;;25.54;57.42;100832.41;5074902;28;20510;-75
2022/09/10 07:28:45;;;;;;;6.95;3.30;;;;;;;25.55;57.38;100823.25;5075245;28;20055;-75
2022/09/10 07:31:15;;;;;;;2.85;2.53;;;;;;;25.56;57.49;100830.34;5074770;28;20048;-75
2022/09/10 07:33:45;;;;;;;3.50;2.60;;;;;;;25.57;57.42;100834.78;5083310;28;20056;-76
2022/09/10 07:36:14;;;;;;;4.35;2.80;;;;;;;25.57;57.26;100835.63;5096682;28;20051;-76
2022/09/10 07:38:44;;;;;;;5.07;3.00;;;;;;;25.57;57.37;100835.63;5095341;28;20052;-74
2022/09/10 07:41:14;;;;;;;5.07;2.63;;;;;;;25.60;57.32;100838.00;5095087;28;20051;-75
2022/09/10 07:43:45;;;;;;;3.38;2.65;;;;;;;25.60;57.38;100840.69;5095059;28;20052;-76
2022/09/10 07:46:20;;;;;;;4.03;2.50;;;;;;;25.61;57.17;100853.22;5095387;28;20047;-75
2022/09/10 07:48:58;;;;;;;6.10;2.58;;;;;;;25.62;56.85;100846.78;5095493;28;20411;-76
2022/09/10 07:51:28;;;;;;;4.28;2.80;;;;;;;25.61;56.81;100849.69;5095658;28;20048;-76
2022/09/10 07:53:59;;;;;;;5.22;2.60;;;;;;;25.61;56.28;100844.25;5095062;28;20059;-76
2022/09/10 07:56:35;;;;;;;7.05;3.40;;;;;;;25.58;56.67;100856.28;5094919;28;20055;-74
2022/09/10 07:59:04;;;;;;;4.43;2.58;;;;;;;25.59;56.91;100854.41;5095001;28;20063;-75
2022/09/10 08:01:39;;;;;;;6.78;2.70;;;;;;;25.58;56.79;100859.00;5095372;28;20048;-75
2022/09/10 08:04:08;;;;;;;4.68;2.65;;;;;;;25.58;56.32;100860.88;5094912;28;20059;-75
2022/09/10 08:06:37;;;;;;;4.60;2.78;;;;;;;25.55;56.46;100862.03;5095181;28;20059;-75
2022/09/10 08:09:08;;;;;;;5.65;3.13;;;;;;;25.54;56.38;100860.34;5093980;28;20056;-75
2022/09/10 08:11:41;;;;;;;5.63;2.80;;;;;;;25.53;56.81;100855.97;5095262;28;20051;-74
2022/09/10 08:14:12;;;;;;;4.20;2.40;;;;;;;25.53;56.55;100857.84;5094783;28;20052;-75
2022/09/10 08:16:42;;;;;;;5.35;2.67;;;;;;;25.53;56.41;100863.25;5094360;28;20047;-74
2022/09/10 08:19:17;;;;;;;3.22;1.90;;;;;;;25.53;56.52;100869.50;5095072;28;20071;-75
2022/09/10 08:21:59;;;;;;;3.88;2.60;;;;;;;25.53;55.89;100863.25;5094424;28;20055;-75
2022/09/10 08:24:31;;;;;;;5.57;2.30;;;;;;;25.50;55.62;100864.44;5094233;28;20052;-75
2022/09/10 08:26:59;;;;;;;3.58;2.17;;;;;;;25.50;55.59;100863.59;5084097;28;20048;-75
2022/09/10 08:29:27;;;;;;;4.07;2.20;;;;;;;25.49;55.91;100864.63;5073708;28;20056;-75
2022/09/10 08:31:57;;;;;;;2.72;1.98;;;;;;;25.49;55.95;100859.19;5073756;28;20063;-75
2022/09/10 08:34:29;;;;;;;5.47;2.30;;;;;;;25.48;56.11;100871.03;5074576;28;20064;-75
2022/09/10 08:37:04;;;;;;;2.40;1.90;;;;;;;25.49;56.22;100861.91;5074238;28;20284;-74
2022/09/10 08:39:33;;;;;;;3.28;1.88;;;;;;;25.50;55.21;100869.84;5073862;28;20052;-75
2022/09/10 08:42:04;;;;;;;4.43;2.13;;;;;;;25.48;55.05;100868.31;5073587;28;20053;-75
2022/09/10 08:44:41;;;;;;;5.93;2.20;;;;;;;25.49;55.19;100865.44;5075236;28;20044;-76
2022/09/10 08:47:08;;;;;;;6.28;2.20;;;;;;;25.48;54.70;100866.47;5074176;28;20048;-75
2022/09/10 08:49:53;;;;;;;4.93;2.30;;;;;;;25.45;54.19;100871.41;5073639;28;20428;-75
2022/09/10 08:52:33;;;;;;;6.32;2.35;;;;;;;25.42;54.25;100883.41;5073596;28;20053;-75
2022/09/10 08:55:05;;;;;;;5.13;2.55;;;;;;;25.44;54.85;100888.66;5073720;28;20055;-75
2022/09/10 08:57:40;;;;;;;5.22;2.47;;;;;;;25.42;54.34;100890.69;5074772;28;20044;-75
2022/09/10 09:00:13;;;;;;;4.32;2.47;;;;;;;25.41;54.38;100881.72;5073395;28;20053;-75
2022/09/10 09:03:23;;;;;;;3.95;2.35;;;;;;;25.38;55.79;100891.03;5073444;28;20044;-77
2022/09/10 09:05:59;;;;;;;4.90;2.60;;;;;;;25.35;56.60;100895.94;5073689;28;20059;-79
2022/09/10 09:08:47;;;;;;;2.80;2.50;;;;;;;25.34;56.80;100891.56;5073607;28;20526;-75
2022/09/10 09:11:30;;;;;;;5.95;2.88;;;;;;;25.31;56.95;100897.31;5074111;28;20045;-75
2022/09/10 09:14:34;;;;;;;3.47;2.22;;;;;;;25.28;56.87;100897.63;5073528;28;20048;-75
2022/09/10 09:17:24;;;;;;;3.28;2.30;;;;;;;25.29;56.95;100896.63;5074493;28;20051;-82
2022/09/10 09:20:13;;;;;;;3.35;2.30;;;;;;;25.29;57.05;100896.63;5073904;28;20049;-81
2022/09/10 09:22:54;;;;;;;3.78;2.28;;;;;;;25.29;57.13;100908.31;5073752;28;20476;-79
2022/09/10 09:25:47;;;;;;;4.13;2.60;;;;;;;25.30;57.02;100912.72;5074683;28;20396;-77
2022/09/10 09:28:45;;;;;;;4.35;2.42;;;;;;;25.31;57.15;100908.97;5084024;28;20051;-77
2022/09/10 09:31:21;;;;;;;4.18;2.72;;;;;;;25.31;57.21;100908.13;5092750;28;20388;-79
2022/09/10 09:33:53;;;;;;;5.18;2.42;;;;;;;25.31;56.95;100908.13;5092867;28;20055;-79
2022/09/10 09:36:31;;;;;;;3.72;2.30;;;;;;;25.31;56.97;100906.28;5094336;28;20384;-75
2022/09/10 09:39:02;;;;;;;8.60;3.60;;;;;;;25.30;57.04;100896.47;5093817;28;20040;-75
2022/09/10 09:41:54;;;;;;;5.63;2.97;;;;;;;25.30;57.05;100896.47;5093118;28;20411;-75
2022/09/10 09:44:44;;;;;;;9.00;3.78;;;;;;;25.30;56.78;100895.63;5073781;28;20434;-75
2022/09/10 09:47:13;;;;;;;9.32;4.05;;;;;;;25.27;56.15;100901.38;5073340;28;20056;-75
2022/09/10 09:49:42;;;;;;;6.30;3.35;;;;;;;25.25;56.37;100896.13;5073096;28;20052;-75
2022/09/10 09:52:20;;;;;;;7.75;3.80;;;;;;;25.26;56.28;100894.25;5074180;28;20041;-75
2022/09/10 09:54:55;;;;;;;5.10;2.70;;;;;;;25.24;56.57;100889.03;5073738;28;20408;-75
2022/09/10 09:57:41;;;;;;;6.65;2.60;;;;;;;25.24;56.43;100880.03;5073848;28;20055;-78
2022/09/10 10:00:35;;;;;;;5.95;2.95;;;;;;;25.26;56.83;100888.84;5073176;28;20051;-79
2022/09/10 10:03:15;;;;;;;4.32;2.85;;;;;;;25.26;56.35;100883.41;5072529;28;20052;-77
2022/09/10 10:05:42;;;;;;;3.25;2.47;;;;;;;25.26;55.64;100891.56;5073912;28;20049;-77
2022/09/10 10:08:31;;;;;;;6.40;2.20;;;;;;;25.24;54.77;100880.91;5073143;28;20048;-80
2022/09/10 10:10:59;;;;;;;5.40;2.30;;;;;;;25.24;54.78;100890.84;5073353;28;20051;-77
2022/09/10 10:13:38;;;;;;;6.63;2.47;;;;;;;25.21;54.79;100875.81;5073023;28;20055;-77
2022/09/10 10:16:29;;;;;;;6.03;2.13;;;;;;;25.21;54.66;100877.66;5073765;28;20048;-78
2022/09/10 10:18:57;;;;;;;4.40;2.00;;;;;;;25.21;54.79;100874.97;5078192;28;20394;-78
2022/09/10 10:21:35;;;;;;;4.85;2.00;;;;;;;25.20;54.30;100871.41;5093406;28;20048;-79
2022/09/10 10:24:03;;;;;;;6.82;2.25;;;;;;;25.20;54.73;100867.81;5093528;28;20044;-77
2022/09/10 10:26:33;;;;;;;4.63;1.60;;;;;;;25.20;54.33;100875.97;5093749;28;20048;-75
2022/09/10 10:29:15;;;;;;;6.65;2.40;;;;;;;25.19;54.01;100866.16;5086742;28;20063;-78
2022/09/10 10:31:46;;;;;;;6.10;3.10;;;;;;;25.18;53.94;100869.88;5072518;28;20045;-77
2022/09/10 10:34:27;;;;;;;7.15;2.85;;;;;;;25.16;53.90;100864.63;5072780;28;20052;-75
2022/09/10 10:37:08;;;;;;;5.75;2.88;;;;;;;25.16;54.05;100867.34;5072901;28;20484;-74
2022/09/10 10:39:47;;;;;;;3.80;2.30;;;;;;;25.15;53.81;100865.63;5073117;28;20388;-74
2022/09/10 10:42:35;;;;;;;6.55;2.53;;;;;;;25.17;54.38;100863.63;5073056;28;20051;-74
2022/09/10 10:45:20;;;;;;;4.07;2.30;;;;;;;25.17;54.15;100858.19;5073439;28;20079;-75
2022/09/10 10:48:01;;;;;;;6.18;2.58;;;;;;;25.19;54.21;100858.00;5072944;28;20408;-75
2022/09/10 10:50:37;;;;;;;3.10;1.92;;;;;;;25.20;54.00;100855.16;5073350;28;20045;-74
2022/09/10 10:53:17;;;;;;;3.60;2.15;;;;;;;25.22;53.67;100852.25;5073135;28;20041;-74
2022/09/10 10:56:11;;;;;;;3.63;1.90;;;;;;;25.22;53.59;100846.84;5073068;28;20048;-79
2022/09/10 10:58:51;;;;;;;7.05;2.80;;;;;;;25.24;53.68;100852.94;5072796;28;20048;-78
2022/09/10 11:01:28;;;;;;;8.85;3.03;;;;;;;25.24;52.98;100848.38;5072886;28;20049;-78
2022/09/10 11:04:32;;;;;;;5.05;2.50;;;;;;;25.25;52.88;100844.66;5072894;28;20040;-75
2022/09/10 11:07:12;;;;;;;4.85;2.28;;;;;;;25.27;52.65;100849.88;5073267;28;20052;-74
2022/09/10 11:09:48;;;;;;;4.80;2.00;;;;;;;25.25;52.21;100839.22;5072969;28;20107;-74
2022/09/10 11:12:27;;;;;;;4.90;2.22;;;;;;;25.26;52.50;100837.34;5072942;28;20044;-74
2022/09/10 11:15:03;;;;;;;7.40;2.05;;;;;;;25.28;52.00;100838.03;5072818;28;20056;-75
2022/09/10 11:17:41;;;;;;;6.57;2.20;;;;;;;25.26;52.76;100832.78;5073571;28;20067;-74
2022/09/10 11:20:17;;;;;;;4.75;2.22;;;;;;;25.28;52.66;100838.03;5072803;28;20056;-74
2022/09/10 11:23:25;;;;;;;4.93;2.13;;;;;;;25.30;52.71;100828.72;5072504;28;20056;-73
2022/09/10 11:26:01;;;;;;;7.35;2.83;;;;;;;25.32;52.68;100836.66;5072994;28;20048;-73
2022/09/10 11:28:38;;;;;;;10.43;2.13;;;;;;;25.33;52.43;100827.53;5073174;28;20071;-76
2022/09/10 11:31:16;;;;;;;3.17;1.98;;;;;;;25.34;52.56;100826.50;5081774;28;20043;-76
2022/09/10 11:33:53;;;;;;;5.45;2.10;;;;;;;25.34;52.12;100821.94;5092374;28;20044;-74
2022/09/10 11:36:32;;;;;;;4.78;1.92;;;;;;;25.36;50.93;100816.31;5072938;28;20051;-74
2022/09/10 11:38:59;;;;;;;6.35;2.65;;;;;;;25.36;51.04;100813.63;5073077;28;20071;-74
2022/09/10 11:41:30;;;;;;;5.18;2.60;;;;;;;25.36;51.34;100797.34;5073038;28;20404;-74
2022/09/10 11:44:30;;;;;;;4.82;2.33;;;;;;;25.37;52.06;100804.50;5082144;28;20033;-74
2022/09/10 11:47:23;;;;;;;5.05;2.20;;;;;;;25.38;52.30;100812.44;5097115;28;20044;-74
2022/09/10 11:50:02;;;;;;;5.60;2.03;;;;;;;25.39;52.41;100794.31;5076474;28;20045;-76
2022/09/10 11:52:33;;;;;;;4.10;2.35;;;;;;;25.38;51.54;100790.75;5075791;28;20040;-79
2022/09/10 11:55:03;;;;;;;7.82;2.10;;;;;;;25.40;51.37;100786.03;5076115;28;20052;-75